Terminal Aerodrome Forecast
Issued by NWS

Home | Current Version | Previous Version | Graphics & Text | Print | Product List | Glossary On
Versions: 1 2 3 4 5 6 7 8 9 10 11 12 13 14 15 16 17
735
FTUS43 KOAX 301124
TAFCDR
TAF
KCDR 301124Z 3012/0112 02010KT 6SM -RA BR OVC008
     FM301500 02015KT P6SM -RASN OVC010
     FM301900 03015KT P6SM -RA OVC015
     FM010100 35006KT P6SM -RASN OVC017=

USA.gov is the U.S. government's official web portal to all federal, state and local government web resources and services.